Terminal Aerodrome Forecast
Issued by NWS

Home | Current Version | Previous Version | Text Only | Print | Product List | Glossary On
Versions: 1 2 3 4 5 6 7 8 9 10 11 12 13 14 15 16 17 18 19 20 21 22 23 24 25 26
000
FTUS44 KMAF 031700
TAFPEQ
TAF
KPEQ 031731Z 0318/0418 24003KT P6SM BKN007
     FM031900 25006KT P6SM BKN150
     FM040000 15007KT P6SM BKN040
      TEMPO 0400/0404 6SM SHRA BR OVC035=

USA.gov is the U.S. government's official web portal to all federal, state and local government web resources and services.